Time;durP1;ratioP1;P1;durP2;ratioP2;P2;SDS_P1;SDS_P2;PMS_P1;PMS_P2;Temp;Humidity;BMP_temperature;BMP_pressure;BME280_temperature;BME280_humidity;BME280_pressure;Samples;Min_cycle;Max_cycle;Signal;HPM_P1;HPM_P2
2022/04/08 00:00:44;;;;;;;7.15;2.00;;;9.30;97.40;;;;;;5035218;28;20033;-72
2022/04/08 00:03:09;;;;;;;5.30;1.05;;;9.20;97.80;;;;;;5039818;28;20033;-72
2022/04/08 00:05:35;;;;;;;9.40;1.65;;;9.20;97.80;;;;;;5034810;28;20097;-72
2022/04/08 00:08:01;;;;;;;8.88;1.10;;;9.10;97.50;;;;;;5034663;28;20037;-72
2022/04/08 00:10:27;;;;;;;10.30;1.33;;;9.10;97.80;;;;;;5035286;28;20044;-72
2022/04/08 00:12:53;;;;;;;6.82;1.50;;;9.20;96.70;;;;;;5035068;28;20052;-72
2022/04/08 00:15:18;;;;;;;12.40;1.80;;;9.20;96.80;;;;;;5043588;28;20032;-72
2022/04/08 00:17:44;;;;;;;10.10;1.30;;;9.20;96.70;;;;;;5053149;28;20025;-72
2022/04/08 00:20:10;;;;;;;5.13;1.10;;;9.20;96.90;;;;;;5054577;28;20096;-72
2022/04/08 00:22:40;;;;;;;4.68;1.02;;;9.10;96.60;;;;;;5045033;28;20026;-71
2022/04/08 00:25:10;;;;;;;6.72;1.48;;;9.30;95.90;;;;;;5035589;28;20100;-72
2022/04/08 00:27:36;;;;;;;6.18;1.13;;;9.20;96.00;;;;;;5048965;28;20060;-72
2022/04/08 00:30:02;;;;;;;5.68;0.73;;;9.20;96.10;;;;;;5054612;28;20099;-72
2022/04/08 00:32:28;;;;;;;5.82;1.23;;;9.20;95.80;;;;;;5046462;28;20030;-72
2022/04/08 00:34:54;;;;;;;5.20;1.05;;;9.20;95.90;;;;;;5033925;28;20398;-73
2022/04/08 00:37:19;;;;;;;5.32;1.27;;;9.30;94.80;;;;;;5033607;28;20109;-72
2022/04/08 00:39:45;;;;;;;7.80;1.52;;;9.30;94.60;;;;;;5047761;28;20508;-72
2022/04/08 00:42:13;;;;;;;11.30;1.85;;;9.30;94.80;;;;;;5052888;28;20389;-72
2022/04/08 00:44:39;;;;;;;7.53;1.33;;;9.30;94.40;;;;;;5054272;28;20040;-72
2022/04/08 00:47:05;;;;;;;8.48;1.45;;;9.20;95.10;;;;;;5035862;28;20030;-72
2022/04/08 00:49:37;;;;;;;5.72;1.05;;;9.20;95.00;;;;;;5053909;28;20074;-72
2022/04/08 00:52:04;;;;;;;5.93;1.33;;;9.20;94.90;;;;;;5038519;28;20112;-72
2022/04/08 00:54:30;;;;;;;8.20;1.10;;;9.30;95.00;;;;;;5053334;28;20068;-72
2022/04/08 00:56:57;;;;;;;4.72;1.00;;;9.30;95.00;;;;;;5052911;28;20024;-73
2022/04/08 00:59:26;;;;;;;5.13;1.00;;;9.30;95.00;;;;;;5033885;28;20566;-72
2022/04/08 01:01:52;;;;;;;6.70;1.08;;;9.20;95.30;;;;;;5034593;28;20045;-71
2022/04/08 01:04:17;;;;;;;8.48;1.05;;;9.20;95.30;;;;;;5051656;28;20029;-72
2022/04/08 01:06:44;;;;;;;7.85;1.10;;;9.20;96.10;;;;;;5052559;28;20036;-73
2022/04/08 01:09:10;;;;;;;3.95;0.82;;;9.20;95.80;;;;;;5053011;28;20104;-73
2022/04/08 01:11:37;;;;;;;8.13;1.30;;;9.10;96.40;;;;;;5053232;28;20095;-73
2022/04/08 01:14:10;;;;;;;5.10;1.10;;;9.00;96.30;;;;;;5047631;28;20033;-73
2022/04/08 01:16:37;;;;;;;7.65;1.23;;;8.90;96.90;;;;;;5033911;28;20033;-73
2022/04/08 01:19:03;;;;;;;8.70;1.52;;;9.00;96.50;;;;;;5032789;28;20028;-73
2022/04/08 01:21:29;;;;;;;7.32;1.38;;;9.00;96.90;;;;;;5032983;28;20052;-72
2022/04/08 01:23:56;;;;;;;5.55;1.15;;;9.00;96.40;;;;;;5036585;28;20037;-73
2022/04/08 01:26:22;;;;;;;3.13;0.80;;;9.00;96.60;;;;;;5050982;28;20033;-72
2022/04/08 01:28:47;;;;;;;5.80;0.93;;;8.90;96.70;;;;;;5052578;28;20086;-72
2022/04/08 01:31:13;;;;;;;6.40;1.15;;;8.90;96.20;;;;;;5052551;28;20513;-73
2022/04/08 01:33:39;;;;;;;7.30;1.17;;;9.00;96.10;;;;;;5052179;28;20037;-73
2022/04/08 01:36:05;;;;;;;12.00;2.25;;;9.00;95.60;;;;;;5052041;28;20036;-73
2022/04/08 01:38:30;;;;;;;11.02;1.30;;;9.00;95.30;;;;;;5050655;28;20036;-73
2022/04/08 01:40:56;;;;;;;10.80;1.17;;;9.00;95.50;;;;;;5033222;28;20473;-73
2022/04/08 01:43:21;;;;;;;5.45;1.10;;;8.90;95.50;;;;;;5032395;28;20079;-71
2022/04/08 01:45:47;;;;;;;9.38;1.52;;;8.90;95.50;;;;;;5042823;28;20033;-71
2022/04/08 01:48:13;;;;;;;5.38;1.30;;;8.90;95.70;;;;;;5035800;28;20079;-72
2022/04/08 01:50:38;;;;;;;6.97;1.67;;;8.80;95.90;;;;;;5032956;28;20029;-72
2022/04/08 01:53:04;;;;;;;6.78;1.10;;;8.70;96.00;;;;;;5022762;28;20058;-71
2022/04/08 01:55:31;;;;;;;6.85;1.05;;;8.70;96.50;;;;;;5012452;28;20085;-72
2022/04/08 01:57:57;;;;;;;5.18;0.98;;;8.70;96.90;;;;;;5022265;28;20037;-72
2022/04/08 02:00:22;;;;;;;6.00;1.35;;;8.60;97.20;;;;;;5031787;28;20029;-72
2022/04/08 02:02:48;;;;;;;7.40;1.50;;;8.50;97.80;;;;;;5032094;28;20040;-71
2022/04/08 02:05:14;;;;;;;3.38;0.88;;;8.30;98.30;;;;;;5031485;28;20032;-71
2022/04/08 02:07:39;;;;;;;7.15;1.00;;;8.30;98.90;;;;;;5031939;28;20025;-71
2022/04/08 02:10:05;;;;;;;4.38;0.90;;;8.30;99.00;;;;;;5030497;28;20394;-72
2022/04/08 02:12:31;;;;;;;3.55;0.90;;;8.30;99.00;;;;;;5032029;28;20534;-72
2022/04/08 02:14:57;;;;;;;5.28;0.95;;;8.30;98.80;;;;;;5032341;28;20064;-72
2022/04/08 02:17:25;;;;;;;4.68;0.93;;;8.40;98.40;;;;;;5030280;28;20022;-72
2022/04/08 02:19:52;;;;;;;5.53;0.90;;;8.50;97.90;;;;;;5029488;28;20057;-71
2022/04/08 02:22:19;;;;;;;6.03;1.23;;;8.60;97.60;;;;;;5012914;28;20037;-71
2022/04/08 02:24:46;;;;;;;4.28;1.02;;;8.50;97.40;;;;;;5022260;28;20030;-71
2022/04/08 02:27:12;;;;;;;6.30;1.20;;;8.50;97.20;;;;;;5027123;28;20018;-71
2022/04/08 02:29:38;;;;;;;2.75;0.95;;;8.50;97.30;;;;;;5012747;28;20037;-72
2022/04/08 02:32:04;;;;;;;6.60;1.17;;;8.40;97.20;;;;;;5011509;28;20483;-72
2022/04/08 02:34:30;;;;;;;7.45;1.20;;;8.40;97.70;;;;;;5013170;28;20065;-71
2022/04/08 02:36:55;;;;;;;7.68;1.10;;;8.30;97.60;;;;;;5012533;28;20053;-71
2022/04/08 02:39:21;;;;;;;6.78;1.13;;;8.30;98.00;;;;;;5026488;28;20029;-71
2022/04/08 02:41:47;;;;;;;5.78;0.98;;;8.20;98.10;;;;;;5032082;28;20402;-71
2022/04/08 02:44:12;;;;;;;12.65;1.33;;;8.20;98.20;;;;;;5031177;28;20025;-71
2022/04/08 02:46:38;;;;;;;3.47;1.30;;;8.20;98.50;;;;;;5020557;28;20056;-71
2022/04/08 02:49:04;;;;;;;3.40;1.10;;;8.20;98.50;;;;;;5030721;28;20467;-72
2022/04/08 02:51:29;;;;;;;7.38;1.10;;;8.20;98.90;;;;;;5031876;28;20025;-72
2022/04/08 02:53:55;;;;;;;5.30;1.33;;;8.10;99.20;;;;;;5042587;28;20445;-72
2022/04/08 02:56:21;;;;;;;6.57;1.83;;;8.10;99.50;;;;;;5035179;28;20036;-72
2022/04/08 02:58:48;;;;;;;4.68;0.90;;;8.20;99.50;;;;;;5030545;28;20117;-71
2022/04/08 03:01:15;;;;;;;4.22;1.08;;;8.10;99.60;;;;;;5031179;28;20037;-72
2022/04/08 03:03:40;;;;;;;3.72;0.95;;;8.10;99.90;;;;;;5031849;28;20073;-71
2022/04/08 03:06:06;;;;;;;5.03;1.30;;;8.00;99.90;;;;;;5036449;28;20060;-72
2022/04/08 03:08:32;;;;;;;7.50;1.52;;;8.00;99.90;;;;;;5032062;28;20412;-72
2022/04/08 03:10:58;;;;;;;5.25;1.02;;;8.10;99.90;;;;;;5031760;28;20022;-72
2022/04/08 03:13:23;;;;;;;6.13;0.98;;;8.10;99.90;;;;;;5030669;28;20033;-72
2022/04/08 03:15:50;;;;;;;5.95;1.20;;;8.10;99.90;;;;;;5047163;28;20021;-72
2022/04/08 03:18:15;;;;;;;8.43;1.50;;;8.00;99.90;;;;;;5050169;28;20025;-72
2022/04/08 03:20:41;;;;;;;4.65;0.93;;;7.90;99.90;;;;;;5051751;28;20070;-72
2022/04/08 03:23:07;;;;;;;4.90;1.10;;;7.90;99.90;;;;;;5050418;28;20070;-72
2022/04/08 03:25:32;;;;;;;4.20;0.93;;;7.90;99.90;;;;;;5051353;28;20040;-72
2022/04/08 03:27:58;;;;;;;9.70;0.95;;;7.90;99.90;;;;;;5042985;28;20411;-72
2022/04/08 03:30:27;;;;;;;6.00;1.35;;;7.90;99.90;;;;;;5033993;28;20163;-72
2022/04/08 03:32:55;;;;;;;7.70;1.70;;;7.90;99.90;;;;;;5035488;28;20029;-72
2022/04/08 03:35:21;;;;;;;8.40;1.40;;;7.90;99.90;;;;;;5048513;28;20044;-72
2022/04/08 03:37:47;;;;;;;8.43;1.90;;;7.90;99.90;;;;;;5050851;28;20033;-72
2022/04/08 03:40:12;;;;;;;10.15;1.30;;;7.80;99.90;;;;;;5047247;28;20079;-72
2022/04/08 03:42:38;;;;;;;6.03;1.20;;;7.90;99.60;;;;;;5049113;28;20083;-72
2022/04/08 03:45:05;;;;;;;5.30;1.10;;;8.10;98.80;;;;;;5037790;28;20057;-72
2022/04/08 03:47:30;;;;;;;4.63;0.93;;;8.10;98.60;;;;;;5055133;28;20100;-72
2022/04/08 03:49:57;;;;;;;7.57;1.10;;;8.10;98.10;;;;;;5055095;28;20068;-72
2022/04/08 03:52:23;;;;;;;3.65;0.85;;;8.10;97.90;;;;;;5054088;28;20135;-71
2022/04/08 03:54:49;;;;;;;8.07;1.10;;;8.00;98.00;;;;;;5043776;28;20033;-72
2022/04/08 03:57:15;;;;;;;6.50;1.15;;;8.00;98.00;;;;;;5034791;28;20364;-72
2022/04/08 03:59:44;;;;;;;3.50;1.02;;;8.00;98.00;;;;;;5051343;28;20052;-71
2022/04/08 04:02:10;;;;;;;4.70;1.10;;;8.00;97.70;;;;;;5054622;28;20037;-72
2022/04/08 04:04:35;;;;;;;9.82;1.15;;;8.00;97.80;;;;;;5053638;28;20474;-71
2022/04/08 04:07:01;;;;;;;7.70;1.40;;;7.90;97.50;;;;;;5055253;28;20370;-71
2022/04/08 04:09:27;;;;;;;5.90;1.30;;;7.90;98.10;;;;;;5039873;28;20033;-72
2022/04/08 04:11:52;;;;;;;7.03;1.30;;;8.00;98.20;;;;;;5035215;28;20362;-72
2022/04/08 04:14:18;;;;;;;6.25;1.00;;;8.00;97.30;;;;;;5035497;28;20030;-72
2022/04/08 04:16:44;;;;;;;6.07;1.75;;;7.90;97.40;;;;;;5036655;28;20022;-72
2022/04/08 04:19:09;;;;;;;3.55;0.73;;;7.80;97.60;;;;;;5032920;28;20040;-73
2022/04/08 04:21:35;;;;;;;10.13;1.15;;;7.70;97.70;;;;;;5035088;28;20363;-73
2022/04/08 04:24:01;;;;;;;10.00;1.38;;;7.80;97.30;;;;;;5037897;28;20039;-72
2022/04/08 04:26:26;;;;;;;7.90;1.10;;;7.80;96.80;;;;;;5052593;28;20210;-72
2022/04/08 04:28:52;;;;;;;5.30;1.17;;;7.80;97.20;;;;;;5047690;28;20029;-72
2022/04/08 04:31:17;;;;;;;6.30;1.25;;;7.90;96.90;;;;;;5034150;28;20109;-72
2022/04/08 04:33:43;;;;;;;5.05;1.02;;;7.80;96.90;;;;;;5035093;28;20047;-72
2022/04/08 04:36:11;;;;;;;12.90;1.58;;;7.80;97.30;;;;;;5053741;28;20025;-73
2022/04/08 04:38:36;;;;;;;7.40;1.15;;;7.80;97.20;;;;;;5049370;28;20025;-72
2022/04/08 04:41:02;;;;;;;10.77;1.52;;;7.80;96.90;;;;;;5033175;28;20352;-73
2022/04/08 04:43:27;;;;;;;4.50;0.90;;;7.80;97.20;;;;;;5033333;28;20037;-72
2022/04/08 04:45:53;;;;;;;8.23;1.40;;;7.80;97.30;;;;;;5043762;28;20029;-71
2022/04/08 04:48:19;;;;;;;5.30;1.65;;;7.70;97.40;;;;;;5053420;28;20071;-72
2022/04/08 04:50:46;;;;;;;9.70;2.17;;;7.60;97.70;;;;;;5053599;28;20041;-72
2022/04/08 04:53:12;;;;;;;9.63;1.50;;;7.60;97.90;;;;;;5052679;28;20140;-72
2022/04/08 04:55:38;;;;;;;6.13;1.17;;;7.70;98.30;;;;;;5053205;28;20437;-72
2022/04/08 04:58:04;;;;;;;8.88;1.67;;;7.60;98.40;;;;;;5052832;28;20370;-73
2022/04/08 05:00:29;;;;;;;6.60;1.00;;;7.50;98.70;;;;;;5033005;28;20467;-72
2022/04/08 05:02:55;;;;;;;4.00;0.90;;;7.50;98.60;;;;;;5040803;28;20356;-72
2022/04/08 05:05:21;;;;;;;4.30;1.33;;;7.50;98.80;;;;;;5040583;28;20024;-72
2022/04/08 05:07:46;;;;;;;4.40;1.17;;;7.50;99.30;;;;;;5044593;28;20369;-72
2022/04/08 05:10:12;;;;;;;5.57;1.23;;;7.50;99.10;;;;;;5045054;28;20079;-72
2022/04/08 05:12:38;;;;;;;3.17;1.02;;;7.50;99.30;;;;;;5042151;28;20036;-71
2022/04/08 05:15:06;;;;;;;5.22;1.05;;;7.50;99.50;;;;;;5041199;28;20029;-72
2022/04/08 05:17:35;;;;;;;6.38;1.23;;;7.50;99.50;;;;;;5044605;28;20478;-71
2022/04/08 05:20:05;;;;;;;3.05;1.13;;;7.50;99.80;;;;;;5052489;28;20600;-69
2022/04/08 05:22:31;;;;;;;;;;;7.40;99.60;;;;;;5053389;28;20032;-70
2022/04/08 05:24:58;;;;;;;4.93;1.27;;;7.50;99.70;;;;;;5053088;28;19959;-70
2022/04/08 05:27:24;;;;;;;4.50;1.17;;;7.50;99.70;;;;;;5052752;28;20024;-70
2022/04/08 05:29:49;;;;;;;7.32;1.08;;;7.60;98.90;;;;;;5038847;28;20425;-71
2022/04/08 05:32:15;;;;;;;4.78;1.33;;;7.60;99.40;;;;;;5033031;28;20034;-71
2022/04/08 05:34:41;;;;;;;5.45;1.58;;;7.60;99.90;;;;;;5033263;28;20048;-68
2022/04/08 05:37:07;;;;;;;4.50;1.15;;;7.60;99.70;;;;;;5041709;28;20021;-70
2022/04/08 05:39:33;;;;;;;6.75;1.27;;;7.60;99.80;;;;;;5039684;28;20029;-72
2022/04/08 05:41:59;;;;;;;6.45;1.25;;;7.60;99.90;;;;;;5033241;28;20044;-75
2022/04/08 05:44:24;;;;;;;5.13;1.40;;;7.70;99.90;;;;;;5032691;28;20029;-75
2022/04/08 05:46:50;;;;;;;4.22;1.30;;;7.70;99.90;;;;;;5050440;28;20382;-78
2022/04/08 05:49:17;;;;;;;7.13;1.10;;;7.80;99.90;;;;;;5042877;28;20026;-75
2022/04/08 05:51:45;;;;;;;7.22;1.42;;;7.80;99.80;;;;;;5033134;28;20033;-82
2022/04/08 05:54:11;;;;;;;3.83;1.08;;;7.80;99.90;;;;;;5030488;28;20060;-75
2022/04/08 05:56:36;;;;;;;8.00;1.45;;;7.90;99.90;;;;;;5032944;28;20033;-74
2022/04/08 05:59:02;;;;;;;7.25;1.60;;;7.90;99.90;;;;;;5039343;28;20040;-72
2022/04/08 06:01:28;;;;;;;4.57;1.40;;;7.90;99.90;;;;;;5036245;28;20083;-73
2022/04/08 06:03:54;;;;;;;7.22;1.35;;;7.90;99.90;;;;;;5036513;28;20068;-72
2022/04/08 06:06:20;;;;;;;8.25;1.40;;;7.90;99.90;;;;;;5017944;28;20039;-72
2022/04/08 06:08:46;;;;;;;6.68;1.75;;;7.90;99.90;;;;;;5047744;28;20100;-71
2022/04/08 06:11:11;;;;;;;4.85;1.40;;;7.90;99.90;;;;;;5031042;28;20021;-71
2022/04/08 06:13:37;;;;;;;4.80;1.00;;;7.90;99.90;;;;;;5031849;28;20037;-71
2022/04/08 06:16:03;;;;;;;6.45;1.00;;;8.00;99.90;;;;;;5032392;28;20022;-71
2022/04/08 06:18:29;;;;;;;8.43;1.52;;;7.90;99.90;;;;;;5031681;28;20219;-72
2022/04/08 06:20:54;;;;;;;8.32;1.02;;;7.80;99.90;;;;;;5032249;28;20026;-71
2022/04/08 06:23:20;;;;;;;3.95;0.75;;;7.80;99.90;;;;;;5031239;28;20033;-72
2022/04/08 06:25:46;;;;;;;8.70;1.17;;;7.80;99.90;;;;;;5031687;28;20025;-72
2022/04/08 06:28:11;;;;;;;4.60;0.88;;;7.70;99.90;;;;;;5031373;28;20025;-72
2022/04/08 06:30:41;;;;;;;7.43;1.08;;;7.60;99.90;;;;;;5038981;28;20060;-72
2022/04/08 06:33:08;;;;;;;4.43;1.08;;;7.60;99.90;;;;;;5051505;28;20055;-73
2022/04/08 06:35:34;;;;;;;9.02;1.60;;;7.50;99.90;;;;;;5051835;28;20111;-73
2022/04/08 06:38:02;;;;;;;3.60;0.90;;;7.50;99.90;;;;;;5048568;28;20025;-71
2022/04/08 06:40:28;;;;;;;5.95;1.00;;;7.50;99.90;;;;;;5042204;28;20458;-73
2022/04/08 06:42:59;;;;;;;5.43;1.30;;;7.50;99.90;;;;;;5039579;28;20487;-73
2022/04/08 06:45:26;;;;;;;2.45;0.80;;;7.60;99.90;;;;;;5043015;28;20383;-73
2022/04/08 06:47:52;;;;;;;4.72;1.00;;;7.60;99.90;;;;;;5044543;28;20514;-74
2022/04/08 06:50:19;;;;;;;3.35;1.10;;;7.60;99.90;;;;;;5052224;28;20032;-73
2022/04/08 06:52:46;;;;;;;8.20;1.10;;;7.60;99.90;;;;;;5051216;28;20049;-73
2022/04/08 06:55:12;;;;;;;6.25;1.35;;;7.70;99.90;;;;;;5050035;28;20444;-73
2022/04/08 06:57:38;;;;;;;5.75;1.23;;;7.60;99.90;;;;;;5051430;28;20116;-73
2022/04/08 07:00:06;;;;;;;5.97;1.25;;;7.60;99.90;;;;;;5045126;28;20029;-72
2022/04/08 07:02:32;;;;;;;5.07;1.38;;;7.60;99.90;;;;;;5040085;28;20132;-72
2022/04/08 07:04:57;;;;;;;4.88;1.13;;;7.60;99.90;;;;;;5031290;28;20120;-73
2022/04/08 07:07:28;;;;;;;4.70;1.10;;;7.50;99.90;;;;;;5030237;28;20458;-72
2022/04/08 07:09:53;;;;;;;;;;;7.40;99.90;;;;;;5032346;28;20103;-73
2022/04/08 07:12:19;;;;;;;4.90;0.90;;;7.30;99.90;;;;;;5038522;28;19905;-73
2022/04/08 07:14:44;;;;;;;4.88;0.88;;;7.20;99.90;;;;;;5050136;28;20383;-72
2022/04/08 07:17:10;;;;;;;6.50;1.30;;;7.20;99.90;;;;;;5051269;28;20036;-74
2022/04/08 07:19:35;;;;;;;4.45;1.00;;;7.10;99.90;;;;;;5050603;28;20071;-72
2022/04/08 07:22:01;;;;;;;7.15;0.98;;;7.00;99.90;;;;;;5045617;28;20018;-73
2022/04/08 07:24:27;;;;;;;4.15;1.02;;;6.90;99.90;;;;;;5031214;28;20391;-73
2022/04/08 07:26:54;;;;;;;4.63;1.00;;;6.80;99.90;;;;;;5032267;28;20529;-72
2022/04/08 07:29:20;;;;;;;6.88;1.38;;;6.80;99.90;;;;;;5049364;28;20056;-73
2022/04/08 07:31:45;;;;;;;6.20;1.40;;;6.70;99.90;;;;;;5040650;28;20482;-72
2022/04/08 07:34:11;;;;;;;5.68;1.05;;;6.80;99.90;;;;;;5050923;28;20036;-71
2022/04/08 07:36:36;;;;;;;7.05;1.45;;;6.60;99.90;;;;;;5031522;28;20037;-71
2022/04/08 07:39:02;;;;;;;6.13;1.45;;;6.50;99.90;;;;;;5031443;28;20467;-71
2022/04/08 07:41:28;;;;;;;6.57;1.23;;;6.50;99.90;;;;;;5032116;28;20737;-71
2022/04/08 07:43:55;;;;;;;10.45;1.38;;;6.40;99.90;;;;;;5049358;28;20082;-71
2022/04/08 07:46:21;;;;;;;4.55;0.70;;;6.30;99.90;;;;;;5044172;28;20102;-71
2022/04/08 07:48:46;;;;;;;3.28;0.73;;;6.30;99.90;;;;;;5051380;28;20504;-71
2022/04/08 07:51:12;;;;;;;4.00;1.13;;;6.30;99.90;;;;;;5051033;28;20454;-73
2022/04/08 07:53:38;;;;;;;5.03;1.05;;;6.30;99.90;;;;;;5050893;28;20049;-72
2022/04/08 07:56:04;;;;;;;5.38;1.00;;;6.30;99.90;;;;;;5032482;28;20083;-72
2022/04/08 07:58:29;;;;;;;6.38;0.93;;;6.30;99.90;;;;;;5031940;28;20650;-73
2022/04/08 08:00:55;;;;;;;4.93;0.90;;;6.50;99.90;;;;;;5043394;28;20065;-74
2022/04/08 08:03:21;;;;;;;5.47;1.27;;;6.50;99.90;;;;;;5052122;28;20441;-73
2022/04/08 08:05:47;;;;;;;4.82;1.10;;;6.60;99.90;;;;;;5052617;28;20127;-72
2022/04/08 08:08:13;;;;;;;7.70;0.90;;;6.60;99.90;;;;;;5051120;28;20501;-73
2022/04/08 08:10:42;;;;;;;2.75;0.88;;;6.70;99.90;;;;;;5052110;28;20017;-73
2022/04/08 08:13:07;;;;;;;6.28;1.02;;;6.90;99.90;;;;;;5040345;28;20029;-72
2022/04/08 08:15:36;;;;;;;3.97;0.73;;;7.00;99.90;;;;;;5030825;28;20087;-73
2022/04/08 08:18:02;;;;;;;6.75;1.10;;;7.10;99.90;;;;;;5034697;28;20057;-73
2022/04/08 08:20:29;;;;;;;4.22;1.02;;;7.20;99.90;;;;;;5033688;28;20489;-72
2022/04/08 08:22:55;;;;;;;4.05;0.80;;;7.30;99.90;;;;;;5041630;28;20467;-73
2022/04/08 08:25:21;;;;;;;3.85;0.88;;;7.30;99.90;;;;;;5053562;28;20116;-73
2022/04/08 08:27:51;;;;;;;3.28;0.80;;;7.40;99.90;;;;;;5053996;28;20032;-73
2022/04/08 08:30:18;;;;;;;3.30;0.85;;;7.50;99.90;;;;;;5049994;28;20037;-73
2022/04/08 08:32:46;;;;;;;3.97;0.90;;;7.60;99.90;;;;;;5042125;28;20033;-73
2022/04/08 08:35:14;;;;;;;2.85;0.50;;;7.70;99.90;;;;;;5055108;28;20036;-74
2022/04/08 08:37:40;;;;;;;2.40;0.90;;;7.80;99.90;;;;;;5033676;28;20037;-73
2022/04/08 08:40:08;;;;;;;1.95;0.57;;;7.90;99.90;;;;;;5038942;28;20025;-73
2022/04/08 08:42:38;;;;;;;3.33;0.60;;;7.90;99.90;;;;;;5053863;28;20565;-73
2022/04/08 08:45:05;;;;;;;1.13;0.60;;;7.90;99.90;;;;;;5051937;28;20033;-73
2022/04/08 08:47:31;;;;;;;2.72;0.90;;;7.80;99.90;;;;;;5035105;28;20064;-73
2022/04/08 08:49:59;;;;;;;2.33;0.57;;;7.80;99.90;;;;;;5032855;28;20021;-73
2022/04/08 08:52:25;;;;;;;1.75;0.63;;;7.80;99.90;;;;;;5033191;28;20073;-73
2022/04/08 08:54:52;;;;;;;3.50;0.90;;;7.80;99.90;;;;;;5033980;28;20037;-74
2022/04/08 08:57:19;;;;;;;2.55;0.60;;;7.80;99.90;;;;;;5016033;28;20033;-73
2022/04/08 08:59:46;;;;;;;1.95;0.80;;;7.80;99.90;;;;;;5033726;28;20030;-73
2022/04/08 09:02:17;;;;;;;3.72;0.70;;;7.80;99.90;;;;;;5014678;28;20046;-73
2022/04/08 09:04:43;;;;;;;3.38;0.80;;;7.90;99.90;;;;;;5014585;28;20026;-72
2022/04/08 09:07:26;;;;;;;4.00;0.70;;;8.00;99.90;;;;;;5014503;28;20040;-73
2022/04/08 09:09:53;;;;;;;2.65;0.80;;;8.00;99.90;;;;;;5014024;28;20026;-72
2022/04/08 09:12:21;;;;;;;3.10;0.60;;;8.00;99.90;;;;;;5016590;28;20048;-72
2022/04/08 09:14:51;;;;;;;1.98;0.40;;;7.90;99.90;;;;;;5033227;28;20026;-72
2022/04/08 09:17:18;;;;;;;2.15;0.60;;;7.90;99.90;;;;;;5033139;28;20114;-72
2022/04/08 09:19:52;;;;;;;2.45;0.52;;;7.90;99.90;;;;;;5033735;28;20040;-72
2022/04/08 09:22:19;;;;;;;1.35;0.40;;;7.90;99.90;;;;;;5029991;28;20108;-72
2022/04/08 09:24:45;;;;;;;1.65;0.40;;;7.90;99.90;;;;;;5014350;28;20041;-72
2022/04/08 09:27:11;;;;;;;1.42;0.55;;;7.90;99.90;;;;;;5013145;28;20042;-72
2022/04/08 09:29:37;;;;;;;1.20;0.70;;;7.80;99.90;;;;;;5012359;28;20416;-72
2022/04/08 09:32:14;;;;;;;3.20;0.70;;;7.80;99.90;;;;;;5013382;28;20160;-72
2022/04/08 09:34:41;;;;;;;3.42;0.85;;;7.80;99.90;;;;;;5012900;28;20073;-72
2022/04/08 09:37:12;;;;;;;2.67;0.50;;;7.80;99.90;;;;;;5013223;28;20033;-72
2022/04/08 09:39:55;;;;;;;3.35;0.73;;;7.70;99.90;;;;;;5013037;28;20113;-73
2022/04/08 09:42:21;;;;;;;3.03;0.77;;;7.60;99.90;;;;;;5014014;28;20097;-73
2022/04/08 09:44:47;;;;;;;1.98;0.70;;;7.60;99.90;;;;;;5031428;28;20478;-73
2022/04/08 09:47:13;;;;;;;1.70;0.50;;;7.60;99.90;;;;;;5013198;28;20088;-73
2022/04/08 09:49:39;;;;;;;2.47;0.80;;;7.60;99.90;;;;;;5012681;28;20030;-73
2022/04/08 09:52:07;;;;;;;1.15;0.52;;;7.50;99.90;;;;;;5017109;28;20025;-72
2022/04/08 09:54:33;;;;;;;3.03;0.65;;;7.30;99.90;;;;;;5051981;28;20116;-72
2022/04/08 09:57:01;;;;;;;1.90;0.70;;;7.20;99.90;;;;;;5052558;28;20111;-72
2022/04/08 09:59:32;;;;;;;2.67;0.75;;;7.10;99.90;;;;;;5051731;28;20041;-73
2022/04/08 10:01:58;;;;;;;1.67;0.70;;;7.10;99.90;;;;;;5051637;28;20029;-73
2022/04/08 10:04:25;;;;;;;1.90;0.50;;;7.00;99.90;;;;;;5051713;28;20104;-73
2022/04/08 10:06:51;;;;;;;2.03;0.82;;;7.00;99.90;;;;;;5052098;28;20052;-73
2022/04/08 10:09:19;;;;;;;1.95;0.90;;;7.00;99.90;;;;;;5031626;28;20467;-73
2022/04/08 10:12:12;;;;;;;1.25;0.50;;;7.00;99.90;;;;;;5045250;28;20032;-73
2022/04/08 10:15:03;;;;;;;1.58;0.65;;;7.00;99.90;;;;;;5031724;28;20044;-73
2022/04/08 10:17:28;;;;;;;;;;;7.00;99.90;;;;;;5051122;28;20029;-73
2022/04/08 10:19:54;;;;;;;0.80;0.52;;;7.10;99.90;;;;;;5052391;28;19905;-73
2022/04/08 10:22:21;;;;;;;2.13;0.52;;;7.10;99.90;;;;;;5047107;28;20022;-73
2022/04/08 10:24:54;;;;;;;1.45;0.43;;;7.10;99.90;;;;;;5032660;28;20474;-72
2022/04/08 10:27:38;;;;;;;1.65;0.60;;;7.10;99.90;;;;;;5031669;28;20032;-73
2022/04/08 10:30:11;;;;;;;1.75;0.50;;;7.00;99.90;;;;;;5031827;28;20382;-72
2022/04/08 10:32:38;;;;;;;2.65;0.60;;;7.00;99.90;;;;;;5031813;28;20030;-72
2022/04/08 10:35:20;;;;;;;0.90;0.38;;;7.00;99.90;;;;;;5032432;28;20030;-73
2022/04/08 10:37:56;;;;;;;0.52;0.30;;;7.00;99.90;;;;;;5031966;28;20021;-72
2022/04/08 10:40:29;;;;;;;0.80;0.50;;;6.80;99.90;;;;;;5031024;28;20084;-73
2022/04/08 10:42:59;;;;;;;0.88;0.32;;;6.70;99.90;;;;;;5040519;28;20037;-72
2022/04/08 10:45:25;;;;;;;0.95;0.30;;;6.70;99.90;;;;;;5045251;28;20026;-72
2022/04/08 10:47:51;;;;;;;0.88;0.30;;;6.70;99.90;;;;;;5032342;28;20048;-73
2022/04/08 10:50:33;;;;;;;0.93;0.30;;;6.60;99.90;;;;;;5031921;28;20486;-72
2022/04/08 10:53:07;;;;;;;1.00;0.40;;;6.60;99.90;;;;;;5031120;28;20048;-72
2022/04/08 10:55:48;;;;;;;1.75;0.30;;;6.70;99.90;;;;;;5029912;28;20041;-72
2022/04/08 10:58:15;;;;;;;1.33;0.60;;;6.70;99.90;;;;;;5032284;28;20064;-73
2022/04/08 11:00:41;;;;;;;1.55;0.40;;;6.70;99.90;;;;;;5031226;28;20278;-73
2022/04/08 11:03:10;;;;;;;2.70;0.60;;;6.70;99.90;;;;;;5042084;28;20041;-72
2022/04/08 11:05:39;;;;;;;1.60;0.77;;;6.80;99.90;;;;;;5046411;28;20037;-72
2022/04/08 11:08:07;;;;;;;0.87;0.60;;;6.80;99.90;;;;;;5032544;28;20036;-72
2022/04/08 11:10:32;;;;;;;0.82;0.60;;;6.80;99.90;;;;;;5033012;28;20276;-72
2022/04/08 11:13:00;;;;;;;2.53;0.60;;;6.80;99.90;;;;;;5044988;28;20033;-73
2022/04/08 11:15:30;;;;;;;1.38;0.47;;;6.70;99.90;;;;;;5046079;28;20029;-72
2022/04/08 11:17:57;;;;;;;;;;;6.60;99.90;;;;;;5032334;28;20029;-73
2022/04/08 11:20:23;;;;;;;4.40;0.93;;;6.60;99.90;;;;;;5031327;28;19936;-73
2022/04/08 11:22:52;;;;;;;1.90;0.80;;;6.60;99.90;;;;;;5038815;28;20059;-73
2022/04/08 11:25:26;;;;;;;1.73;0.50;;;6.70;99.90;;;;;;5049371;28;20035;-72
2022/04/08 11:28:06;;;;;;;3.30;0.60;;;6.60;99.90;;;;;;5031632;28;20064;-72
2022/04/08 11:30:33;;;;;;;;;;;6.50;99.90;;;;;;5031229;28;20029;-72
2022/04/08 11:32:59;;;;;;;1.38;0.60;;;6.50;99.90;;;;;;5039207;28;19913;-72
2022/04/08 11:35:31;;;;;;;2.05;0.85;;;6.50;99.90;;;;;;5047880;28;20037;-72
2022/04/08 11:37:58;;;;;;;0.70;0.40;;;6.40;99.90;;;;;;5031577;28;20025;-72
2022/04/08 11:40:24;;;;;;;1.48;0.93;;;6.40;99.90;;;;;;5030841;28;20021;-72
2022/04/08 11:42:50;;;;;;;1.58;0.90;;;6.40;99.90;;;;;;5031906;28;20116;-71
2022/04/08 11:45:16;;;;;;;1.40;0.90;;;6.40;99.90;;;;;;5032622;28;20387;-73
2022/04/08 11:47:47;;;;;;;6.90;2.50;;;6.50;99.90;;;;;;5049153;28;20029;-73
2022/04/08 11:50:13;;;;;;;4.60;1.80;;;6.50;99.90;;;;;;5049017;28;20029;-72
2022/04/08 11:52:38;;;;;;;1.98;1.00;;;6.40;99.90;;;;;;5036769;28;20154;-72
2022/04/08 11:55:06;;;;;;;2.03;1.10;;;6.40;99.90;;;;;;5051856;28;20476;-72
2022/04/08 11:57:34;;;;;;;2.63;1.08;;;6.50;99.90;;;;;;5055453;28;20037;-72
2022/04/08 12:00:01;;;;;;;2.42;0.90;;;6.60;99.90;;;;;;5055828;28;20518;-73
2022/04/08 12:02:28;;;;;;;2.63;1.08;;;6.60;99.90;;;;;;5051011;28;20033;-74
2022/04/08 12:04:54;;;;;;;2.72;0.82;;;6.70;99.90;;;;;;5035310;28;20042;-73
2022/04/08 12:07:25;;;;;;;3.58;0.93;;;6.70;99.90;;;;;;5034652;28;20028;-72
2022/04/08 12:09:54;;;;;;;;;;;6.70;99.90;;;;;;5036129;28;20048;-72
2022/04/08 12:12:28;;;;;;;2.13;0.93;;;6.80;99.90;;;;;;5034054;28;20000;-73
2022/04/08 12:14:54;;;;;;;3.08;0.90;;;6.70;99.90;;;;;;5044929;28;20120;-72
2022/04/08 12:17:20;;;;;;;2.90;1.35;;;6.60;99.90;;;;;;5053373;28;20409;-74
2022/04/08 12:19:51;;;;;;;3.17;1.05;;;6.50;99.90;;;;;;5053643;28;20025;-72
2022/04/08 12:22:18;;;;;;;2.85;1.23;;;6.40;99.90;;;;;;5053730;28;20028;-73
2022/04/08 12:24:47;;;;;;;2.20;1.08;;;6.40;99.90;;;;;;5043377;28;20582;-73
2022/04/08 12:27:19;;;;;;;1.30;0.75;;;6.30;99.90;;;;;;5054648;28;20493;-73
2022/04/08 12:29:46;;;;;;;2.78;1.00;;;6.30;99.90;;;;;;5041176;28;20030;-71
2022/04/08 12:32:15;;;;;;;3.42;1.15;;;6.30;99.90;;;;;;5035020;28;20044;-73
2022/04/08 12:34:44;;;;;;;1.40;1.10;;;6.30;99.90;;;;;;5033931;28;20116;-73
2022/04/08 12:37:10;;;;;;;1.67;1.20;;;6.30;99.90;;;;;;5034638;28;20036;-73
2022/04/08 12:39:36;;;;;;;2.72;0.95;;;6.20;99.90;;;;;;5033030;28;20025;-72
2022/04/08 12:42:02;;;;;;;2.97;1.27;;;6.20;99.90;;;;;;5034242;28;20049;-73
2022/04/08 12:44:28;;;;;;;2.35;1.10;;;6.00;99.90;;;;;;5039706;28;20393;-73
2022/04/08 12:46:55;;;;;;;4.50;1.27;;;6.00;99.90;;;;;;5036041;28;20378;-72
2022/04/08 12:49:21;;;;;;;1.42;0.90;;;5.90;99.90;;;;;;5047764;28;20025;-73
2022/04/08 12:51:46;;;;;;;1.52;0.75;;;5.90;99.90;;;;;;5054839;28;20025;-72
2022/04/08 12:54:12;;;;;;;2.20;0.77;;;6.00;99.90;;;;;;5037842;28;20045;-74
2022/04/08 12:56:38;;;;;;;4.07;1.10;;;6.10;99.90;;;;;;5033071;28;20029;-75